createdAt,value
2022-08-24T00:02:06.619Z,27.90
2022-08-24T00:04:35.857Z,28.00
2022-08-24T00:07:06.109Z,27.90
2022-08-24T00:09:54.566Z,27.90
2022-08-24T00:12:23.224Z,27.90
2022-08-24T00:14:52.016Z,28.00
2022-08-24T00:17:21.362Z,28.10
2022-08-24T00:19:49.939Z,28.00
2022-08-24T00:22:18.428Z,28.00
2022-08-24T00:24:46.792Z,28.00
2022-08-24T00:27:15.283Z,28.10
2022-08-24T00:29:43.719Z,28.20
2022-08-24T00:32:12.070Z,28.30
2022-08-24T00:34:40.508Z,28.30
2022-08-24T00:37:14.377Z,28.40
2022-08-24T00:39:43.494Z,28.40
2022-08-24T00:42:12.324Z,28.40
2022-08-24T00:44:40.688Z,28.40
2022-08-24T00:47:28.471Z,28.50
2022-08-24T00:50:07.192Z,28.60
2022-08-24T00:52:48.152Z,28.50
2022-08-24T00:55:24.154Z,28.50
2022-08-24T00:57:56.996Z,28.50
2022-08-24T01:00:29.366Z,28.30
2022-08-24T01:03:05.108Z,28.40
2022-08-24T01:05:35.011Z,28.40
2022-08-24T01:08:05.381Z,28.40
2022-08-24T01:10:38.812Z,28.20
2022-08-24T01:13:09.989Z,28.20
2022-08-24T01:15:41.574Z,28.20
2022-08-24T01:18:35.674Z,28.00
2022-08-24T01:21:28.165Z,28.00
2022-08-24T01:24:03.576Z,27.90
2022-08-24T01:27:01.655Z,27.80
2022-08-24T01:29:32.555Z,27.90
2022-08-24T01:32:02.020Z,27.90
2022-08-24T01:34:30.793Z,27.90
2022-08-24T01:37:01.038Z,27.90
2022-08-24T01:39:44.965Z,27.80
2022-08-24T01:42:15.231Z,27.70
2022-08-24T01:44:46.820Z,27.70
2022-08-24T01:47:17.219Z,27.70
2022-08-24T01:49:48.228Z,27.60
2022-08-24T01:52:20.940Z,27.50
2022-08-24T01:54:49.554Z,27.60
2022-08-24T01:57:19.054Z,27.40
2022-08-24T01:59:47.489Z,27.40
2022-08-24T02:02:23.331Z,27.30
2022-08-24T02:04:51.754Z,27.20
2022-08-24T02:07:20.507Z,27.10
2022-08-24T02:09:49.337Z,27.10
2022-08-24T02:12:18.621Z,26.90
2022-08-24T02:14:47.105Z,26.90
2022-08-24T02:17:15.853Z,26.80
2022-08-24T02:19:44.810Z,26.80
2022-08-24T02:22:13.341Z,26.80
2022-08-24T02:24:41.756Z,26.70
2022-08-24T02:27:10.382Z,26.60
2022-08-24T02:29:38.952Z,26.60
2022-08-24T02:32:08.159Z,26.50
2022-08-24T02:34:36.563Z,26.40
2022-08-24T02:37:05.195Z,26.40
2022-08-24T02:39:34.123Z,26.40
2022-08-24T02:42:02.660Z,26.30
2022-08-24T02:44:31.041Z,26.30
2022-08-24T02:46:59.515Z,26.20
2022-08-24T02:49:28.238Z,26.20
2022-08-24T02:51:56.719Z,26.00
2022-08-24T02:54:25.215Z,26.00
2022-08-24T02:56:53.885Z,25.90
2022-08-24T02:59:23.157Z,25.80
2022-08-24T03:01:51.806Z,25.80
2022-08-24T03:04:21.610Z,25.70
2022-08-24T03:06:50.067Z,25.70
2022-08-24T03:09:19.432Z,25.50
2022-08-24T03:11:47.838Z,25.50
2022-08-24T03:14:16.699Z,25.50
2022-08-24T03:16:45.395Z,25.40
2022-08-24T03:19:14.532Z,25.40
2022-08-24T03:21:44.451Z,25.30
2022-08-24T03:24:12.943Z,25.20
2022-08-24T03:26:44.262Z,25.10
2022-08-24T03:29:13.225Z,25.10
2022-08-24T03:31:41.698Z,25.00
2022-08-24T03:34:11.031Z,25.00
2022-08-24T03:36:39.667Z,25.00
2022-08-24T03:39:08.568Z,24.90
2022-08-24T03:41:37.243Z,24.80
2022-08-24T03:44:06.239Z,24.70
2022-08-24T03:46:37.956Z,24.70
2022-08-24T03:49:11.832Z,24.70
2022-08-24T03:51:40.583Z,24.60
2022-08-24T03:54:10.419Z,24.50
2022-08-24T03:56:39.154Z,24.50
2022-08-24T03:59:10.059Z,24.40
2022-08-24T04:01:39.693Z,24.30
2022-08-24T04:04:08.097Z,24.20
2022-08-24T04:06:36.619Z,24.30
2022-08-24T04:09:06.514Z,24.20
2022-08-24T04:11:39.406Z,24.10
2022-08-24T04:14:20.322Z,24.00
2022-08-24T04:16:57.591Z,23.90
2022-08-24T04:19:26.777Z,23.90
2022-08-24T04:21:58.269Z,23.80
2022-08-24T04:24:28.004Z,23.70
2022-08-24T04:26:56.792Z,23.60
2022-08-24T04:29:25.167Z,23.60
2022-08-24T04:31:54.289Z,23.50
2022-08-24T04:34:22.920Z,23.40
2022-08-24T04:36:51.323Z,23.40
2022-08-24T04:39:19.871Z,23.40
2022-08-24T04:41:50.480Z,23.20
2022-08-24T04:44:20.012Z,23.20
2022-08-24T04:46:48.418Z,23.10
2022-08-24T04:49:16.818Z,23.00
2022-08-24T04:51:45.280Z,23.00
2022-08-24T04:54:13.797Z,23.00
2022-08-24T04:56:42.158Z,22.80
2022-08-24T04:59:10.557Z,22.80
2022-08-24T05:01:39.018Z,22.80
2022-08-24T05:04:07.495Z,22.60
2022-08-24T05:06:36.135Z,22.60
2022-08-24T05:09:06.393Z,22.60
2022-08-24T05:11:36.709Z,22.60
2022-08-24T05:14:05.272Z,22.50
2022-08-24T05:16:38.527Z,22.50
2022-08-24T05:19:07.972Z,22.30
2022-08-24T05:21:36.605Z,22.30
2022-08-24T05:24:05.483Z,22.20
2022-08-24T05:26:33.929Z,22.30
2022-08-24T05:29:04.148Z,22.30
2022-08-24T05:31:34.249Z,22.20
2022-08-24T05:34:03.869Z,22.20
2022-08-24T05:36:35.247Z,22.10
2022-08-24T05:39:11.202Z,22.00
2022-08-24T05:41:44.773Z,22.00
2022-08-24T05:44:15.025Z,21.90
2022-08-24T05:46:44.188Z,21.90
2022-08-24T05:49:13.469Z,21.90
2022-08-24T05:51:43.456Z,21.80
2022-08-24T05:54:14.529Z,21.80
2022-08-24T05:56:43.461Z,21.70
2022-08-24T05:59:12.540Z,21.70
2022-08-24T06:01:45.294Z,21.70
2022-08-24T06:04:14.144Z,21.60
2022-08-24T06:06:43.608Z,21.60
2022-08-24T06:09:16.986Z,21.60
2022-08-24T06:11:47.752Z,21.50
2022-08-24T06:14:18.507Z,21.50
2022-08-24T06:16:48.607Z,21.40
2022-08-24T06:19:19.921Z,21.30
2022-08-24T06:21:51.096Z,21.30
2022-08-24T06:24:41.318Z,21.30
2022-08-24T06:27:24.900Z,21.20
2022-08-24T06:30:07.095Z,21.20
2022-08-24T06:32:35.578Z,21.20
2022-08-24T06:35:04.275Z,21.10
2022-08-24T06:37:32.743Z,21.10
2022-08-24T06:40:01.250Z,21.00
2022-08-24T06:42:30.217Z,21.00
2022-08-24T06:44:58.720Z,20.90
2022-08-24T06:47:27.228Z,20.90
2022-08-24T06:49:55.691Z,20.80
2022-08-24T06:52:24.123Z,20.80
2022-08-24T06:54:54.040Z,20.80
2022-08-24T06:57:22.796Z,20.60
2022-08-24T06:59:51.239Z,20.70
2022-08-24T07:02:20.232Z,20.60
2022-08-24T07:04:49.091Z,20.60
2022-08-24T07:07:18.124Z,20.50
2022-08-24T07:09:46.557Z,20.50
2022-08-24T07:12:14.943Z,20.50
2022-08-24T07:14:44.008Z,20.40
2022-08-24T07:17:12.442Z,20.40
2022-08-24T07:19:40.859Z,20.40
2022-08-24T07:22:09.325Z,20.40
2022-08-24T07:24:38.848Z,20.40
2022-08-24T07:27:07.536Z,20.30
2022-08-24T07:30:04.818Z,20.20
2022-08-24T07:32:24.459Z,20.10
2022-08-24T07:34:52.835Z,20.00
2022-08-24T07:37:21.354Z,20.00
2022-08-24T07:39:49.824Z,20.00
2022-08-24T07:42:26.941Z,20.00
2022-08-24T07:44:59.812Z,19.90
2022-08-24T07:47:38.468Z,19.80
2022-08-24T07:50:08.516Z,19.80
2022-08-24T07:52:36.903Z,19.70
2022-08-24T07:55:06.441Z,19.70
2022-08-24T07:57:35.745Z,19.60
2022-08-24T08:00:05.166Z,19.60
2022-08-24T08:02:36.346Z,19.50
2022-08-24T08:05:06.152Z,19.50
2022-08-24T08:07:34.725Z,19.50
2022-08-24T08:10:04.200Z,19.50
2022-08-24T08:12:32.667Z,19.40
2022-08-24T08:15:01.149Z,19.40
2022-08-24T08:17:29.596Z,19.40
2022-08-24T08:19:58.068Z,19.40
2022-08-24T08:22:52.386Z,19.40
2022-08-24T08:25:20.897Z,19.30
2022-08-24T08:27:49.264Z,19.30
2022-08-24T08:30:18.032Z,19.30
2022-08-24T08:32:47.175Z,19.40
2022-08-24T08:35:15.790Z,19.40
2022-08-24T08:37:44.286Z,19.30
2022-08-24T08:40:34.109Z,19.30
2022-08-24T08:43:11.336Z,19.20
2022-08-24T08:45:56.467Z,19.10
2022-08-24T08:48:54.184Z,19.10
2022-08-24T08:51:49.309Z,19.10
2022-08-24T08:54:34.775Z,19.00
2022-08-24T08:57:34.602Z,19.00
2022-08-24T09:00:15.632Z,18.90
2022-08-24T09:03:18.366Z,18.90
2022-08-24T09:06:38.567Z,18.80
2022-08-24T09:09:25.197Z,18.70
2022-08-24T09:11:53.694Z,18.60
2022-08-24T09:14:41.489Z,18.60
2022-08-24T09:17:34.767Z,18.50
2022-08-24T09:20:03.366Z,18.50
2022-08-24T09:22:41.840Z,18.40
2022-08-24T09:25:37.292Z,18.40
2022-08-24T09:28:29.892Z,18.40
2022-08-24T09:31:10.494Z,18.50
2022-08-24T09:33:46.527Z,18.50
2022-08-24T09:36:25.135Z,18.40
2022-08-24T09:39:11.397Z,18.40
2022-08-24T09:42:02.541Z,18.40
2022-08-24T09:44:52.020Z,18.40
2022-08-24T09:47:41.756Z,18.40
2022-08-24T09:50:22.135Z,18.40
2022-08-24T09:53:13.564Z,18.30
2022-08-24T09:55:53.750Z,18.20
2022-08-24T09:58:22.327Z,18.30
2022-08-24T10:00:56.957Z,18.20
2022-08-24T10:03:56.152Z,18.20
2022-08-24T10:06:49.453Z,18.10
2022-08-24T10:09:51.608Z,18.10
2022-08-24T10:12:29.207Z,18.10
2022-08-24T10:15:11.837Z,18.00
2022-08-24T10:17:43.416Z,18.00
2022-08-24T10:20:51.048Z,18.00
2022-08-24T10:23:37.637Z,18.00
2022-08-24T10:26:19.683Z,17.90
2022-08-24T10:29:13.992Z,17.90
2022-08-24T10:32:09.380Z,17.90
2022-08-24T10:35:04.022Z,17.80
2022-08-24T10:38:20.612Z,17.70
2022-08-24T10:40:55.191Z,17.70
2022-08-24T10:43:35.462Z,17.70
2022-08-24T10:46:19.813Z,17.80
2022-08-24T10:49:00.771Z,17.70
2022-08-24T10:51:51.158Z,17.70
2022-08-24T10:54:21.864Z,17.70
2022-08-24T10:57:11.579Z,17.60
2022-08-24T10:59:49.908Z,17.60
2022-08-24T11:02:35.657Z,17.50
2022-08-24T11:05:12.222Z,17.60
2022-08-24T11:08:01.838Z,17.50
2022-08-24T11:10:35.023Z,17.40
2022-08-24T11:13:23.864Z,17.50
2022-08-24T11:15:59.092Z,17.40
2022-08-24T11:18:46.848Z,17.40
2022-08-24T11:21:33.955Z,17.30
2022-08-24T11:24:19.019Z,17.40
2022-08-24T11:26:59.543Z,17.40
2022-08-24T11:29:48.062Z,17.40
2022-08-24T11:32:30.164Z,17.30
2022-08-24T11:35:05.627Z,17.30
2022-08-24T11:37:38.251Z,17.30
2022-08-24T11:40:10.541Z,17.20
2022-08-24T11:43:09.964Z,17.20
2022-08-24T11:45:48.520Z,17.20
2022-08-24T11:48:44.635Z,17.10
2022-08-24T11:51:29.963Z,17.10
2022-08-24T11:53:58.397Z,17.00
2022-08-24T11:56:32.352Z,17.10
2022-08-24T11:59:28.420Z,17.20
2022-08-24T12:02:05.139Z,17.20
2022-08-24T12:05:07.867Z,17.20
2022-08-24T12:07:51.034Z,17.20
2022-08-24T12:10:38.395Z,17.30
2022-08-24T12:13:17.038Z,17.20
2022-08-24T12:15:51.951Z,17.20
2022-08-24T12:18:27.476Z,17.20
2022-08-24T12:20:57.279Z,17.20
2022-08-24T12:24:06.409Z,17.10
2022-08-24T12:26:48.358Z,17.10
2022-08-24T12:29:42.696Z,17.10
2022-08-24T12:32:17.394Z,17.10
2022-08-24T12:35:14.618Z,17.10
2022-08-24T12:37:54.840Z,17.10
2022-08-24T12:40:44.209Z,17.10
2022-08-24T12:43:32.772Z,17.00
2022-08-24T12:46:02.292Z,17.00
2022-08-24T12:48:54.994Z,17.00
2022-08-24T12:51:26.429Z,16.90
2022-08-24T12:54:08.759Z,16.90
2022-08-24T12:56:49.258Z,17.00
2022-08-24T12:59:17.658Z,16.80
2022-08-24T13:02:08.903Z,16.90
2022-08-24T13:04:53.706Z,16.80
2022-08-24T13:07:50.159Z,16.80
2022-08-24T13:10:24.545Z,16.70
2022-08-24T13:13:11.266Z,16.70
2022-08-24T13:15:39.754Z,16.70
2022-08-24T13:18:11.437Z,16.70
2022-08-24T13:20:46.099Z,16.80
2022-08-24T13:23:25.355Z,16.70
2022-08-24T13:26:00.810Z,16.70
2022-08-24T13:28:40.076Z,16.70
2022-08-24T13:31:14.896Z,16.70
2022-08-24T13:33:58.599Z,16.70
2022-08-24T13:36:35.731Z,16.70
2022-08-24T13:39:22.261Z,16.70
2022-08-24T13:42:12.272Z,16.80
2022-08-24T13:44:46.411Z,16.80
2022-08-24T13:47:34.481Z,16.90
2022-08-24T13:50:06.317Z,16.80
2022-08-24T13:53:12.408Z,16.90
2022-08-24T13:55:53.922Z,17.00
2022-08-24T13:58:40.141Z,17.00
2022-08-24T14:01:39.723Z,17.10
2022-08-24T14:04:55.962Z,17.20
2022-08-24T14:08:14.340Z,17.10
2022-08-24T14:10:45.555Z,17.20
2022-08-24T14:13:26.661Z,17.30
2022-08-24T14:16:33.776Z,17.40
2022-08-24T14:19:38.952Z,17.50
2022-08-24T14:22:14.193Z,17.60
2022-08-24T14:25:05.007Z,17.40
2022-08-24T14:27:47.052Z,17.50
2022-08-24T14:30:23.428Z,17.60
2022-08-24T14:33:28.370Z,17.60
2022-08-24T14:36:40.384Z,17.60
2022-08-24T14:39:29.002Z,17.80
2022-08-24T14:42:33.827Z,17.80
2022-08-24T14:45:11.358Z,18.00
2022-08-24T14:48:38.943Z,18.20
2022-08-24T14:51:13.446Z,18.40
2022-08-24T14:54:08.217Z,18.40
2022-08-24T14:56:54.616Z,18.40
2022-08-24T14:59:44.266Z,18.60
2022-08-24T15:02:45.757Z,18.70
2022-08-24T15:05:25.871Z,18.90
2022-08-24T15:07:59.671Z,19.00
2022-08-24T15:10:51.389Z,19.10
2022-08-24T15:13:57.286Z,19.30
2022-08-24T15:16:40.920Z,19.50
2022-08-24T15:19:27.613Z,19.50
2022-08-24T15:22:30.750Z,19.60
2022-08-24T15:25:36.133Z,19.60
2022-08-24T15:28:12.974Z,19.70
2022-08-24T15:30:54.043Z,19.90
2022-08-24T15:33:22.675Z,20.10
2022-08-24T15:36:05.014Z,20.20
2022-08-24T15:38:36.751Z,20.30
2022-08-24T15:41:23.574Z,20.90
2022-08-24T15:43:57.706Z,21.20
2022-08-24T15:46:46.248Z,21.60
2022-08-24T15:49:18.299Z,22.50
2022-08-24T15:52:02.679Z,23.10
2022-08-24T15:54:42.223Z,23.90
2022-08-24T15:57:30.840Z,24.40
2022-08-24T16:00:17.337Z,25.60
2022-08-24T16:02:45.909Z,26.90
2022-08-24T16:05:22.537Z,27.50
2022-08-24T16:08:06.348Z,28.60
2022-08-24T16:10:56.053Z,30.30
2022-08-24T16:13:29.353Z,31.40
2022-08-24T16:16:00.330Z,31.90
2022-08-24T16:18:52.169Z,31.80
2022-08-24T16:21:26.641Z,33.60
2022-08-24T16:24:02.311Z,32.50
2022-08-24T16:26:47.991Z,30.50
2022-08-24T16:29:38.403Z,31.00
2022-08-24T16:32:22.730Z,33.00
2022-08-24T16:35:11.861Z,32.50
2022-08-24T16:37:40.656Z,31.40
2022-08-24T16:40:10.493Z,31.40
2022-08-24T16:42:40.862Z,31.30
2022-08-24T16:45:13.240Z,31.20
2022-08-24T16:47:41.753Z,32.20
2022-08-24T16:50:10.577Z,31.80
2022-08-24T16:52:38.943Z,30.70
2022-08-24T16:55:08.288Z,29.80
2022-08-24T16:57:38.314Z,29.40
2022-08-24T17:00:16.003Z,28.70
2022-08-24T17:02:46.035Z,28.40
2022-08-24T17:05:15.033Z,27.10
2022-08-24T17:07:44.751Z,27.30
2022-08-24T17:10:16.914Z,27.00
2022-08-24T17:12:45.534Z,26.30
2022-08-24T17:15:17.020Z,26.60
2022-08-24T17:17:56.122Z,26.10
2022-08-24T17:20:24.717Z,26.10
2022-08-24T17:22:53.125Z,25.70
2022-08-24T17:25:21.560Z,25.50
2022-08-24T17:27:50.143Z,24.70
2022-08-24T17:30:19.341Z,25.00
2022-08-24T17:32:48.967Z,25.30
2022-08-24T17:35:18.449Z,25.70
2022-08-24T17:37:46.882Z,25.40
2022-08-24T17:40:18.903Z,24.80
2022-08-24T17:42:51.117Z,24.80
2022-08-24T17:45:23.686Z,24.80
2022-08-24T17:47:53.259Z,24.80
2022-08-24T17:50:24.963Z,24.70
2022-08-24T17:52:59.176Z,24.90
2022-08-24T17:55:29.355Z,24.50
2022-08-24T17:57:58.792Z,24.30
2022-08-24T18:00:27.281Z,24.10
2022-08-24T18:02:55.915Z,24.10
2022-08-24T18:05:24.626Z,23.90
2022-08-24T18:07:55.983Z,23.80
2022-08-24T18:10:28.805Z,23.90
2022-08-24T18:13:01.739Z,24.10
2022-08-24T18:15:35.893Z,24.00
2022-08-24T18:18:08.789Z,24.30
2022-08-24T18:20:40.790Z,24.10
2022-08-24T18:23:12.069Z,24.20
2022-08-24T18:25:48.984Z,24.30
2022-08-24T18:28:18.897Z,24.50
2022-08-24T18:30:47.585Z,24.30
2022-08-24T18:33:16.268Z,24.50
2022-08-24T18:35:46.443Z,24.50
2022-08-24T18:38:15.042Z,24.60
2022-08-24T18:40:52.294Z,24.50
2022-08-24T18:43:23.843Z,24.60
2022-08-24T18:45:53.449Z,24.60
2022-08-24T18:48:22.458Z,24.70
2022-08-24T18:50:51.926Z,24.80
2022-08-24T18:53:20.992Z,24.70
2022-08-24T18:55:50.155Z,24.70
2022-08-24T18:58:18.572Z,24.60
2022-08-24T19:00:47.818Z,24.80
2022-08-24T19:03:23.368Z,24.70
2022-08-24T19:05:51.813Z,24.80
2022-08-24T19:08:20.246Z,24.90
2022-08-24T19:10:48.866Z,25.00
2022-08-24T19:13:19.276Z,25.20
2022-08-24T19:15:49.770Z,25.10
2022-08-24T19:18:20.219Z,25.40
2022-08-24T19:20:51.408Z,25.60
2022-08-24T19:23:32.020Z,25.50
2022-08-24T19:26:01.199Z,25.30
2022-08-24T19:28:30.163Z,25.60
2022-08-24T19:31:02.349Z,25.80
2022-08-24T19:33:37.803Z,26.00
2022-08-24T19:36:07.088Z,26.20
2022-08-24T19:38:35.656Z,26.70
2022-08-24T19:41:11.186Z,26.90
2022-08-24T19:44:01.891Z,27.20
2022-08-24T19:46:30.363Z,27.30
2022-08-24T19:48:58.975Z,27.50
2022-08-24T19:51:27.860Z,27.90
2022-08-24T19:53:56.256Z,27.80
2022-08-24T19:56:25.038Z,27.60
2022-08-24T19:58:59.585Z,27.50
2022-08-24T20:01:37.442Z,27.60
2022-08-24T20:04:07.784Z,27.50
2022-08-24T20:06:38.284Z,27.40
2022-08-24T20:09:07.049Z,27.30
2022-08-24T20:11:35.888Z,27.20
2022-08-24T20:14:04.314Z,27.20
2022-08-24T20:16:39.540Z,27.40
2022-08-24T20:19:08.087Z,27.60
2022-08-24T20:21:36.711Z,27.50
2022-08-24T20:24:05.668Z,27.30
2022-08-24T20:26:41.517Z,27.40
2022-08-24T20:29:11.263Z,27.30
2022-08-24T20:31:40.985Z,27.50
2022-08-24T20:34:09.554Z,27.60
2022-08-24T20:36:43.818Z,27.50
2022-08-24T20:39:14.126Z,27.40
2022-08-24T20:41:42.503Z,27.30
2022-08-24T20:44:11.407Z,27.30
2022-08-24T20:46:40.835Z,27.40
2022-08-24T20:49:16.998Z,27.20
2022-08-24T20:51:47.887Z,27.50
2022-08-24T20:54:16.372Z,27.60
2022-08-24T20:56:45.887Z,27.80
2022-08-24T20:59:15.973Z,27.90
2022-08-24T21:01:44.391Z,27.90
2022-08-24T21:04:13.387Z,27.90
2022-08-24T21:06:45.743Z,27.80
2022-08-24T21:09:14.533Z,27.80
2022-08-24T21:11:44.215Z,27.70
2022-08-24T21:14:13.663Z,28.00
2022-08-24T21:16:44.401Z,28.10
2022-08-24T21:19:16.976Z,28.10
2022-08-24T21:21:47.531Z,28.10
2022-08-24T21:24:16.604Z,28.00
2022-08-24T21:26:45.411Z,28.10
2022-08-24T21:29:14.111Z,28.20
2022-08-24T21:32:02.389Z,28.40
2022-08-24T21:34:43.103Z,28.50
2022-08-24T21:37:17.196Z,28.60
2022-08-24T21:39:48.051Z,28.60
2022-08-24T21:42:20.011Z,28.60
2022-08-24T21:44:48.783Z,28.80
2022-08-24T21:47:18.320Z,28.90
2022-08-24T21:49:46.671Z,29.00
2022-08-24T21:52:15.113Z,29.00
2022-08-24T21:54:43.603Z,29.00
2022-08-24T21:57:12.327Z,29.20
2022-08-24T21:59:40.934Z,29.30
2022-08-24T22:02:10.776Z,29.20
2022-08-24T22:04:42.148Z,29.30
2022-08-24T22:07:13.273Z,29.50
2022-08-24T22:09:42.195Z,29.40
2022-08-24T22:12:10.751Z,29.30
2022-08-24T22:14:39.340Z,29.40
2022-08-24T22:17:07.910Z,29.50
2022-08-24T22:19:36.285Z,29.60
2022-08-24T22:22:04.783Z,29.80
2022-08-24T22:24:33.325Z,29.90
2022-08-24T22:27:01.692Z,29.80
2022-08-24T22:29:30.250Z,29.90
2022-08-24T22:31:58.885Z,30.10
2022-08-24T22:34:27.882Z,30.10
2022-08-24T22:37:00.171Z,30.20
2022-08-24T22:39:29.753Z,30.10
2022-08-24T22:41:58.681Z,30.10
2022-08-24T22:44:28.615Z,30.20
2022-08-24T22:47:02.317Z,30.30
2022-08-24T22:49:34.273Z,30.50
2022-08-24T22:52:03.704Z,30.60
2022-08-24T22:54:33.274Z,30.70
2022-08-24T22:57:03.287Z,30.60
2022-08-24T22:59:36.965Z,30.70
2022-08-24T23:02:12.722Z,30.60
2022-08-24T23:04:45.917Z,30.80
2022-08-24T23:07:15.943Z,30.90
2022-08-24T23:09:45.937Z,30.90
2022-08-24T23:12:18.501Z,30.70
2022-08-24T23:14:47.389Z,30.70
2022-08-24T23:17:15.772Z,30.70
2022-08-24T23:20:05.451Z,30.70
2022-08-24T23:22:41.515Z,30.80
2022-08-24T23:25:13.047Z,30.90
2022-08-24T23:27:43.634Z,30.90
2022-08-24T23:30:14.835Z,31.00
2022-08-24T23:32:44.479Z,31.20
2022-08-24T23:35:12.957Z,31.30
2022-08-24T23:37:41.712Z,31.10
2022-08-24T23:40:10.806Z,31.20
2022-08-24T23:42:39.219Z,31.20
2022-08-24T23:45:10.739Z,31.20
2022-08-24T23:47:40.619Z,31.30
2022-08-24T23:50:11.137Z,31.30
2022-08-24T23:52:40.426Z,31.30
2022-08-24T23:55:21.370Z,31.30
2022-08-24T23:57:50.997Z,31.40
